createdAt,value
2024-04-19T00:00:59.312Z,3.20
2024-04-19T00:03:47.238Z,4.65
2024-04-19T00:06:35.727Z,5.10
2024-04-19T00:09:24.096Z,3.12
2024-04-19T00:12:11.780Z,4.47
2024-04-19T00:14:59.719Z,4.22
2024-04-19T00:17:47.289Z,5.85
2024-04-19T00:20:34.834Z,4.03
2024-04-19T00:23:22.104Z,4.15
2024-04-19T00:26:09.431Z,4.22
2024-04-19T00:28:56.887Z,9.10
2024-04-19T00:31:44.197Z,3.58
2024-04-19T00:34:34.950Z,2.85
2024-04-19T00:37:22.854Z,4.67
2024-04-19T00:40:10.973Z,3.40
2024-04-19T00:42:59.505Z,5.95
2024-04-19T00:45:48.469Z,4.17
2024-04-19T00:48:36.694Z,3.70
2024-04-19T00:51:24.412Z,6.17
2024-04-19T00:54:12.056Z,8.05
2024-04-19T00:57:00.460Z,7.47
2024-04-19T00:59:48.715Z,6.72
2024-04-19T01:02:37.842Z,6.80
2024-04-19T01:05:26.027Z,5.83
2024-04-19T01:08:13.646Z,6.37
2024-04-19T01:11:01.654Z,7.30
2024-04-19T01:13:49.921Z,8.18
2024-04-19T01:16:38.357Z,6.03
2024-04-19T01:19:25.863Z,5.53
2024-04-19T01:22:15.617Z,6.35
2024-04-19T01:25:09.211Z,3.58
2024-04-19T01:27:56.788Z,4.22
2024-04-19T01:30:45.834Z,4.55
2024-04-19T01:33:33.265Z,6.33
2024-04-19T01:36:20.846Z,4.47
2024-04-19T01:39:09.139Z,3.62
2024-04-19T01:41:56.861Z,6.42
2024-04-19T01:44:43.972Z,5.17
2024-04-19T01:47:31.680Z,7.62
2024-04-19T01:50:19.402Z,6.47
2024-04-19T01:53:06.982Z,5.90
2024-04-19T01:55:54.273Z,4.58
2024-04-19T01:58:42.253Z,4.83
2024-04-19T02:01:29.733Z,4.33
2024-04-19T02:04:16.862Z,5.03
2024-04-19T02:07:04.161Z,4.92
2024-04-19T02:09:51.903Z,2.95
2024-04-19T02:12:39.402Z,5.45
2024-04-19T02:15:26.975Z,5.40
2024-04-19T02:18:14.533Z,5.42
2024-04-19T02:21:02.291Z,5.37
2024-04-19T02:23:49.630Z,5.92
2024-04-19T02:26:37.151Z,13.35
2024-04-19T02:29:41.992Z,7.58
2024-04-19T02:32:29.866Z,6.97
2024-04-19T02:35:17.319Z,3.52
2024-04-19T02:38:06.403Z,8.18
2024-04-19T02:40:54.020Z,5.90
2024-04-19T02:43:43.189Z,5.33
2024-04-19T02:46:30.800Z,8.45
2024-04-19T02:49:18.505Z,7.15
2024-04-19T02:52:06.460Z,9.25
2024-04-19T02:54:53.913Z,11.30
2024-04-19T02:57:41.148Z,8.60
2024-04-19T03:00:28.541Z,4.87
2024-04-19T03:03:16.256Z,4.90
2024-04-19T03:06:03.578Z,8.15
2024-04-19T03:08:53.584Z,8.03
2024-04-19T03:11:40.929Z,2.30
2024-04-19T03:14:28.576Z,3.30
2024-04-19T03:17:16.285Z,4.58
2024-04-19T03:20:03.948Z,5.95
2024-04-19T03:22:51.311Z,5.33
2024-04-19T03:25:38.957Z,4.58
2024-04-19T03:28:26.463Z,4.83
2024-04-19T03:31:13.718Z,6.35
2024-04-19T03:34:01.222Z,4.83
2024-04-19T03:36:51.846Z,7.45
2024-04-19T03:39:39.235Z,8.85
2024-04-19T03:42:27.419Z,6.57
2024-04-19T03:45:33.075Z,6.25
2024-04-19T03:48:20.688Z,6.40
2024-04-19T03:51:08.177Z,5.50
2024-04-19T03:53:55.360Z,7.28
2024-04-19T03:56:42.711Z,5.95
2024-04-19T03:59:30.053Z,5.83
2024-04-19T04:02:17.653Z,5.75
2024-04-19T04:05:04.999Z,5.33
2024-04-19T04:07:52.269Z,4.50
2024-04-19T04:10:41.387Z,5.42
2024-04-19T04:13:29.943Z,3.85
2024-04-19T04:16:17.172Z,4.80
2024-04-19T04:19:07.614Z,9.63
2024-04-19T04:21:56.644Z,5.33
2024-04-19T04:24:44.540Z,6.50
2024-04-19T04:27:31.996Z,8.68
2024-04-19T04:30:19.380Z,6.47
2024-04-19T04:33:07.803Z,6.72
2024-04-19T04:35:56.875Z,6.60
2024-04-19T04:38:44.132Z,8.48
2024-04-19T04:41:31.635Z,6.40
2024-04-19T04:44:19.014Z,7.83
2024-04-19T04:47:06.840Z,8.13
2024-04-19T04:49:54.290Z,8.95
2024-04-19T04:52:41.622Z,4.22
2024-04-19T04:55:31.231Z,5.17
2024-04-19T04:58:18.657Z,6.90
2024-04-19T05:01:06.609Z,7.87
2024-04-19T05:03:54.316Z,6.85
2024-04-19T05:06:41.746Z,9.63
2024-04-19T05:09:29.074Z,5.62
2024-04-19T05:12:16.603Z,7.20
2024-04-19T05:15:04.230Z,7.47
2024-04-19T05:17:52.117Z,32.45
2024-04-19T05:20:39.438Z,14.45
2024-04-19T05:23:26.920Z,8.25
2024-04-19T05:26:14.225Z,3.22
2024-04-19T05:29:01.571Z,3.55
2024-04-19T05:31:48.951Z,3.60
2024-04-19T05:34:37.050Z,5.53
2024-04-19T05:37:24.985Z,1.67
2024-04-19T05:40:12.694Z,2.50
2024-04-19T05:43:00.354Z,2.37
2024-04-19T05:45:48.294Z,4.12
2024-04-19T05:48:35.828Z,3.72
2024-04-19T05:51:23.173Z,5.33
2024-04-19T05:54:10.565Z,4.20
2024-04-19T05:56:57.955Z,2.60
2024-04-19T05:59:45.347Z,2.30
2024-04-19T06:02:32.761Z,3.77
2024-04-19T06:05:19.713Z,5.00
2024-04-19T06:08:09.138Z,3.85
2024-04-19T06:10:56.212Z,2.65
2024-04-19T06:13:45.131Z,3.92
2024-04-19T06:16:32.451Z,5.28
2024-04-19T06:19:20.365Z,3.42
2024-04-19T06:22:07.691Z,4.92
2024-04-19T06:24:56.615Z,3.90
2024-04-19T06:27:44.093Z,9.28
2024-04-19T06:30:34.556Z,12.60
2024-04-19T06:33:22.345Z,3.90
2024-04-19T06:36:10.738Z,6.12
2024-04-19T06:38:58.920Z,5.80
2024-04-19T06:41:46.441Z,4.62
2024-04-19T06:44:34.288Z,4.95
2024-04-19T06:47:21.589Z,8.13
2024-04-19T06:50:08.803Z,5.62
2024-04-19T06:52:56.291Z,4.75
2024-04-19T06:55:43.702Z,7.08
2024-04-19T06:58:31.183Z,6.58
2024-04-19T07:01:19.035Z,5.22
2024-04-19T07:04:06.863Z,6.35
2024-04-19T07:06:54.352Z,6.10
2024-04-19T07:09:41.528Z,6.70
2024-04-19T07:12:29.142Z,5.80
2024-04-19T07:15:17.317Z,8.40
2024-04-19T07:18:06.637Z,7.15
2024-04-19T07:20:54.901Z,6.65
2024-04-19T07:23:42.131Z,5.97
2024-04-19T07:26:30.000Z,7.40
2024-04-19T07:29:17.630Z,6.90
2024-04-19T07:32:05.299Z,5.40
2024-04-19T07:34:53.675Z,12.43
2024-04-19T07:37:41.302Z,8.65
2024-04-19T07:40:28.799Z,9.35
2024-04-19T07:43:16.259Z,7.28
2024-04-19T07:46:04.195Z,9.53
2024-04-19T07:48:52.214Z,6.90
2024-04-19T07:51:39.676Z,8.45
2024-04-19T07:54:26.967Z,8.88
2024-04-19T07:57:17.018Z,8.40
2024-04-19T08:00:05.856Z,8.28
2024-04-19T08:02:53.316Z,9.38
2024-04-19T08:05:40.582Z,8.05
2024-04-19T08:08:28.278Z,13.60
2024-04-19T08:11:15.769Z,8.55
2024-04-19T08:14:02.860Z,9.18
2024-04-19T08:16:50.393Z,9.98
2024-04-19T08:19:38.088Z,9.58
2024-04-19T08:22:25.229Z,10.30
2024-04-19T08:25:12.469Z,10.45
2024-04-19T08:28:01.731Z,15.28
2024-04-19T08:30:49.706Z,11.00
2024-04-19T08:33:37.100Z,8.88
2024-04-19T08:36:24.597Z,10.68
2024-04-19T08:39:12.084Z,9.68
2024-04-19T08:42:02.829Z,13.65
2024-04-19T08:44:51.583Z,12.75
2024-04-19T08:47:39.983Z,10.13
2024-04-19T08:50:28.118Z,12.37
2024-04-19T08:53:17.218Z,10.82
2024-04-19T08:56:05.928Z,9.15
2024-04-19T08:58:55.870Z,9.70
2024-04-19T09:01:43.063Z,10.15
2024-04-19T09:04:30.279Z,10.90
2024-04-19T09:07:17.910Z,11.25
2024-04-19T09:10:06.687Z,11.30
2024-04-19T09:12:54.621Z,11.55
2024-04-19T09:15:42.217Z,8.23
2024-04-19T09:18:30.337Z,11.63
2024-04-19T09:21:19.134Z,11.63
2024-04-19T09:24:09.411Z,10.53
2024-04-19T09:27:14.240Z,9.60
2024-04-19T09:29:55.119Z,11.18
2024-04-19T09:32:42.766Z,12.50
2024-04-19T09:35:31.789Z,10.00
2024-04-19T09:38:21.922Z,9.73
2024-04-19T09:41:14.062Z,12.93
2024-04-19T09:44:03.024Z,9.25
2024-04-19T09:46:54.268Z,9.70
2024-04-19T09:49:46.028Z,10.32
2024-04-19T09:52:35.742Z,11.53
2024-04-19T09:55:31.901Z,9.83
2024-04-19T09:58:20.000Z,8.10
2024-04-19T10:01:07.650Z,7.75
2024-04-19T10:03:56.909Z,7.37
2024-04-19T10:06:45.327Z,8.70
2024-04-19T10:09:33.004Z,7.53
2024-04-19T10:12:21.277Z,9.55
2024-04-19T10:15:13.157Z,5.22
2024-04-19T10:18:07.318Z,6.37
2024-04-19T10:20:55.800Z,8.73
2024-04-19T10:23:43.249Z,7.25
2024-04-19T10:26:32.759Z,5.33
2024-04-19T10:29:20.538Z,8.18
2024-04-19T10:32:08.120Z,4.50
2024-04-19T10:34:56.945Z,4.92
2024-04-19T10:37:44.460Z,4.62
2024-04-19T10:40:32.143Z,5.10
2024-04-19T10:43:19.621Z,4.80
2024-04-19T10:46:07.160Z,5.17
2024-04-19T10:48:56.130Z,4.35
2024-04-19T10:51:44.795Z,6.47
2024-04-19T10:54:32.452Z,5.15
2024-04-19T10:57:19.972Z,4.33
2024-04-19T11:00:08.564Z,4.30
2024-04-19T11:03:07.203Z,6.35
2024-04-19T11:05:47.097Z,6.47
2024-04-19T11:08:35.283Z,3.90
2024-04-19T11:11:22.927Z,5.30
2024-04-19T11:14:11.104Z,7.75
2024-04-19T11:16:58.965Z,4.28
2024-04-19T11:19:48.439Z,3.33
2024-04-19T11:22:37.386Z,4.28
2024-04-19T11:25:24.751Z,3.35
2024-04-19T11:28:13.354Z,3.08
2024-04-19T11:31:03.801Z,3.65
2024-04-19T11:33:55.561Z,3.72
2024-04-19T11:36:44.823Z,3.02
2024-04-19T11:39:36.379Z,2.45
2024-04-19T11:42:23.211Z,3.15
2024-04-19T11:45:10.588Z,4.90
2024-04-19T11:48:00.731Z,3.83
2024-04-19T11:50:49.310Z,4.10
2024-04-19T11:53:36.581Z,3.98
2024-04-19T11:56:24.253Z,3.42
2024-04-19T11:59:21.997Z,3.08
2024-04-19T12:02:09.390Z,5.90
2024-04-19T12:04:56.978Z,3.70
2024-04-19T12:07:44.721Z,3.52
2024-04-19T12:10:32.381Z,4.12
2024-04-19T12:14:07.786Z,3.75
2024-04-19T12:16:35.594Z,3.70
2024-04-19T12:18:58.204Z,2.65
2024-04-19T12:21:47.650Z,5.85
2024-04-19T12:24:38.252Z,2.95
2024-04-19T12:27:25.705Z,3.50
2024-04-19T12:30:13.684Z,2.27
2024-04-19T12:33:01.304Z,3.45
2024-04-19T12:35:50.622Z,4.45
2024-04-19T12:38:37.943Z,2.92
2024-04-19T12:41:25.343Z,5.42
2024-04-19T12:44:13.203Z,2.90
2024-04-19T12:47:00.880Z,4.33
2024-04-19T12:49:48.129Z,16.42
2024-04-19T12:52:35.698Z,7.08
2024-04-19T12:55:25.399Z,4.22
2024-04-19T12:58:12.457Z,4.10
2024-04-19T13:01:01.664Z,7.05
2024-04-19T13:03:51.821Z,5.15
2024-04-19T13:06:38.362Z,3.50
2024-04-19T13:09:26.897Z,7.00
2024-04-19T13:12:17.217Z,6.17
2024-04-19T13:15:05.129Z,5.17
2024-04-19T13:17:52.424Z,5.25
2024-04-19T13:20:40.058Z,3.92
2024-04-19T13:23:27.559Z,4.05
2024-04-19T13:26:14.969Z,4.78
2024-04-19T13:29:02.290Z,2.92
2024-04-19T13:31:51.638Z,0.78
2024-04-19T13:34:39.005Z,2.15
2024-04-19T13:37:27.279Z,1.15
2024-04-19T13:40:14.958Z,1.45
2024-04-19T13:43:02.470Z,1.22
2024-04-19T13:45:50.924Z,2.65
2024-04-19T13:48:39.460Z,2.12
2024-04-19T13:51:28.762Z,4.45
2024-04-19T13:54:16.897Z,1.92
2024-04-19T13:57:04.843Z,2.33
2024-04-19T13:59:52.449Z,0.93
2024-04-19T14:02:40.494Z,0.40
2024-04-19T14:05:28.267Z,0.30
2024-04-19T14:08:15.872Z,0.82
2024-04-19T14:11:04.158Z,1.25
2024-04-19T14:13:51.982Z,1.87
2024-04-19T14:16:39.533Z,0.90
2024-04-19T14:19:29.397Z,1.47
2024-04-19T14:22:17.297Z,3.92
2024-04-19T14:25:06.696Z,0.75
2024-04-19T14:27:54.108Z,1.40
2024-04-19T14:30:42.968Z,0.95
2024-04-19T14:33:30.304Z,1.35
2024-04-19T14:36:17.768Z,1.42
2024-04-19T14:39:05.468Z,1.30
2024-04-19T14:41:53.124Z,0.78
2024-04-19T14:44:40.759Z,3.77
2024-04-19T14:47:28.398Z,0.40
2024-04-19T14:50:15.876Z,0.80
2024-04-19T14:53:09.873Z,1.37
2024-04-19T14:55:51.928Z,2.67
2024-04-19T14:58:44.734Z,0.82
2024-04-19T15:01:31.082Z,4.28
2024-04-19T15:04:19.080Z,3.00
2024-04-19T15:07:07.570Z,1.17
2024-04-19T15:09:55.139Z,0.93
2024-04-19T15:12:42.334Z,1.82
2024-04-19T15:15:30.081Z,0.93
2024-04-19T15:18:17.602Z,3.75
2024-04-19T15:21:05.277Z,6.00
2024-04-19T15:23:53.358Z,2.40
2024-04-19T15:26:41.075Z,1.60
2024-04-19T15:29:28.593Z,2.83
2024-04-19T15:32:16.275Z,3.02
2024-04-19T15:35:04.982Z,1.82
2024-04-19T15:37:52.509Z,2.77
2024-04-19T15:40:40.875Z,2.95
2024-04-19T15:43:28.322Z,1.85
2024-04-19T15:46:18.578Z,0.40
2024-04-19T15:49:06.514Z,0.50
2024-04-19T15:51:53.843Z,1.52
2024-04-19T15:54:41.510Z,1.67
2024-04-19T15:57:29.626Z,1.55
2024-04-19T16:00:17.191Z,1.37
2024-04-19T16:03:05.871Z,2.47
2024-04-19T16:05:53.252Z,1.37
2024-04-19T16:08:42.093Z,1.77
2024-04-19T16:11:29.746Z,1.55
2024-04-19T16:14:17.282Z,0.50
2024-04-19T16:17:05.667Z,0.55
2024-04-19T16:19:53.267Z,1.05
2024-04-19T16:22:40.968Z,1.85
2024-04-19T16:25:28.679Z,0.42
2024-04-19T16:28:16.080Z,1.95
2024-04-19T16:31:03.680Z,0.50
2024-04-19T16:33:51.246Z,2.10
2024-04-19T16:36:38.711Z,1.15
2024-04-19T16:39:26.202Z,4.92
2024-04-19T16:42:13.977Z,2.17
2024-04-19T16:45:01.511Z,1.98
2024-04-19T16:47:51.422Z,1.22
2024-04-19T16:50:41.759Z,0.30
2024-04-19T16:53:29.217Z,2.60
2024-04-19T16:56:18.032Z,1.17
2024-04-19T16:59:07.021Z,4.75
2024-04-19T17:01:54.165Z,1.70
2024-04-19T17:04:43.445Z,1.52
2024-04-19T17:07:31.341Z,1.37
2024-04-19T17:10:18.677Z,4.30
2024-04-19T17:13:06.166Z,2.08
2024-04-19T17:15:54.188Z,3.70
2024-04-19T17:18:41.784Z,1.45
2024-04-19T17:21:29.272Z,2.37
2024-04-19T17:24:16.613Z,3.30
2024-04-19T17:27:04.318Z,2.58
2024-04-19T17:29:51.778Z,2.70
2024-04-19T17:32:40.451Z,2.30
2024-04-19T17:35:27.671Z,3.17
2024-04-19T17:38:15.330Z,7.05
2024-04-19T17:41:04.024Z,4.15
2024-04-19T17:43:51.518Z,2.40
2024-04-19T17:46:38.837Z,3.37
2024-04-19T17:49:26.226Z,2.30
2024-04-19T17:52:13.493Z,3.25
2024-04-19T17:55:01.024Z,2.60
2024-04-19T17:57:50.959Z,3.85
2024-04-19T18:00:39.269Z,3.75
2024-04-19T18:03:26.486Z,6.15
2024-04-19T18:06:13.773Z,3.45
2024-04-19T18:09:01.417Z,6.53
2024-04-19T18:11:49.324Z,4.15
2024-04-19T18:14:36.627Z,2.65
2024-04-19T18:17:23.987Z,4.67
2024-04-19T18:20:11.628Z,2.65
2024-04-19T18:23:00.986Z,4.72
2024-04-19T18:25:49.166Z,2.00
2024-04-19T18:28:37.069Z,2.67
2024-04-19T18:31:24.329Z,3.90
2024-04-19T18:34:13.364Z,4.22
2024-04-19T18:37:00.415Z,3.17
2024-04-19T18:39:48.068Z,3.50
2024-04-19T18:42:36.188Z,4.10
2024-04-19T18:45:25.085Z,2.45
2024-04-19T18:48:13.337Z,3.08
2024-04-19T18:51:00.517Z,2.45
2024-04-19T18:53:47.845Z,6.33
2024-04-19T18:56:35.286Z,2.65
2024-04-19T18:59:24.336Z,6.53
2024-04-19T19:02:11.468Z,12.10
2024-04-19T19:04:59.188Z,8.33
2024-04-19T19:07:48.191Z,8.78
2024-04-19T19:10:38.483Z,3.37
2024-04-19T19:13:26.120Z,4.55
2024-04-19T19:16:14.172Z,5.25
2024-04-19T19:19:01.565Z,7.95
2024-04-19T19:21:48.990Z,5.30
2024-04-19T19:24:36.247Z,11.73
2024-04-19T19:27:23.735Z,11.85
2024-04-19T19:30:11.509Z,3.25
2024-04-19T19:32:58.871Z,9.00
2024-04-19T19:35:49.522Z,11.95
2024-04-19T19:38:38.305Z,10.63
2024-04-19T19:41:25.468Z,3.98
2024-04-19T19:44:13.185Z,12.28
2024-04-19T19:47:00.959Z,10.43
2024-04-19T19:49:48.183Z,8.43
2024-04-19T19:52:36.859Z,7.58
2024-04-19T19:55:24.150Z,8.78
2024-04-19T19:58:11.693Z,10.45
2024-04-19T20:01:17.513Z,8.68
2024-04-19T20:04:15.749Z,6.65
2024-04-19T20:07:03.130Z,10.95
2024-04-19T20:09:50.452Z,7.58
2024-04-19T20:12:38.300Z,9.60
2024-04-19T20:15:29.447Z,7.53
2024-04-19T20:18:18.109Z,6.97
2024-04-19T20:21:07.080Z,6.92
2024-04-19T20:23:54.553Z,6.28
2024-04-19T20:26:42.046Z,7.00
2024-04-19T20:29:31.718Z,6.15
2024-04-19T20:32:18.297Z,7.95
2024-04-19T20:35:06.000Z,7.12
2024-04-19T20:37:53.721Z,8.55
2024-04-19T20:40:41.068Z,4.42
2024-04-19T20:43:28.824Z,10.98
2024-04-19T20:46:17.207Z,8.50
2024-04-19T20:49:04.983Z,8.70
2024-04-19T20:51:52.535Z,8.93
2024-04-19T20:54:39.897Z,5.37
2024-04-19T20:57:27.258Z,4.90
2024-04-19T21:00:14.779Z,5.33
2024-04-19T21:03:02.357Z,6.97
2024-04-19T21:05:49.651Z,6.67
2024-04-19T21:08:37.288Z,5.95
2024-04-19T21:11:24.730Z,4.12
2024-04-19T21:14:12.280Z,7.47
2024-04-19T21:16:59.623Z,6.17
2024-04-19T21:19:47.185Z,2.92
2024-04-19T21:22:34.745Z,4.75
2024-04-19T21:25:22.109Z,5.28
2024-04-19T21:28:09.556Z,6.03
2024-04-19T21:31:03.815Z,6.08
2024-04-19T21:33:51.371Z,9.08
2024-04-19T21:36:40.357Z,11.38
2024-04-19T21:39:27.862Z,8.08
2024-04-19T21:42:16.694Z,4.35
2024-04-19T21:45:04.569Z,15.83
2024-04-19T21:47:52.116Z,7.33
2024-04-19T21:50:39.665Z,5.97
2024-04-19T21:53:27.297Z,6.37
2024-04-19T21:56:15.958Z,5.95
2024-04-19T21:59:05.475Z,6.35
2024-04-19T22:01:53.545Z,5.60
2024-04-19T22:04:43.197Z,4.50
2024-04-19T22:07:31.994Z,6.65
2024-04-19T22:10:19.418Z,5.67
2024-04-19T22:13:11.374Z,6.17
2024-04-19T22:15:58.554Z,5.95
2024-04-19T22:18:46.116Z,4.75
2024-04-19T22:21:33.741Z,6.62
2024-04-19T22:24:21.299Z,5.58
2024-04-19T22:27:09.411Z,9.25
2024-04-19T22:29:57.000Z,9.78
2024-04-19T22:32:44.516Z,6.58
2024-04-19T22:35:32.048Z,6.15
2024-04-19T22:38:19.220Z,5.28
2024-04-19T22:41:06.846Z,4.92
2024-04-19T22:43:54.504Z,7.00
2024-04-19T22:46:41.853Z,6.35
2024-04-19T22:49:30.226Z,7.90
2024-04-19T22:52:17.536Z,6.28
2024-04-19T22:55:05.242Z,4.83
2024-04-19T22:57:52.963Z,7.22
2024-04-19T23:00:40.614Z,6.03
2024-04-19T23:03:28.438Z,8.28
2024-04-19T23:06:17.262Z,7.47
2024-04-19T23:09:08.581Z,7.42
2024-04-19T23:11:55.047Z,10.08
2024-04-19T23:14:43.423Z,6.12
2024-04-19T23:17:30.915Z,7.90
2024-04-19T23:20:18.891Z,4.22
2024-04-19T23:23:06.203Z,4.03
2024-04-19T23:26:11.405Z,3.47
2024-04-19T23:29:04.575Z,5.15
2024-04-19T23:31:47.910Z,4.72
2024-04-19T23:34:35.311Z,7.47
2024-04-19T23:37:22.742Z,5.97
2024-04-19T23:40:10.526Z,3.75
2024-04-19T23:42:58.216Z,5.80
2024-04-19T23:45:47.361Z,2.37
2024-04-19T23:48:34.887Z,2.85
2024-04-19T23:51:22.710Z,7.95
2024-04-19T23:54:11.763Z,2.55
2024-04-19T23:56:58.928Z,6.37
2024-04-19T23:59:46.214Z,2.98
